Time;durP1;ratioP1;P1;durP2;ratioP2;P2;SDS_P1;SDS_P2;PMS_P1;PMS_P2;Temp;Humidity;BMP_temperature;BMP_pressure;BME280_temperature;BME280_humidity;BME280_pressure;Samples;Min_cycle;Max_cycle;Signal;HPM_P1;HPM_P2
2021/06/28 00:01:29;;;;;;;;;;;19.10;99.90;;;;;;5099922;28;19975;-82
2021/06/28 00:03:54;;;;;;;;;;;19.10;99.90;;;;;;5100815;28;19912;-82
2021/06/28 00:06:20;;;;;;;;;;;19.00;99.90;;;;;;5098962;28;19919;-81
2021/06/28 00:08:46;;;;;;;;;;;19.00;99.90;;;;;;5099166;28;19908;-81
2021/06/28 00:11:12;;;;;;;;;;;19.00;99.90;;;;;;5097576;28;20359;-81
2021/06/28 00:13:39;;;;;;;;;;;19.00;99.90;;;;;;5096785;28;19999;-81
2021/06/28 00:16:05;;;;;;;;;;;19.00;99.90;;;;;;5099639;28;20045;-81
2021/06/28 00:18:31;;;;;;;;;;;19.00;99.90;;;;;;5096912;28;19959;-81
2021/06/28 00:20:57;;;;;;;;;;;19.00;99.90;;;;;;5096804;28;20359;-81
2021/06/28 00:23:23;;;;;;;;;;;19.00;99.90;;;;;;5097946;28;19921;-81
2021/06/28 00:25:49;;;;;;;;;;;19.00;99.90;;;;;;5096819;28;19912;-81
2021/06/28 00:28:14;;;;;;;;;;;19.00;99.90;;;;;;5096543;28;19912;-80
2021/06/28 00:30:41;;;;;;;;;;;19.00;99.90;;;;;;5098122;28;19912;-81
2021/06/28 00:33:08;;;;;;;;;;;19.00;99.90;;;;;;5096212;28;19916;-81
2021/06/28 00:35:34;;;;;;;;;;;18.90;99.90;;;;;;5097101;28;19912;-81
2021/06/28 00:38:00;;;;;;;;;;;18.90;99.90;;;;;;5092271;28;19916;-81
2021/06/28 00:40:26;;;;;;;;;;;18.90;99.90;;;;;;5083416;28;20023;-81
2021/06/28 00:42:52;;;;;;;;;;;18.90;99.90;;;;;;5097076;28;19913;-81
2021/06/28 00:45:22;;;;;;;;;;;18.90;99.90;;;;;;5095011;28;19912;-81
2021/06/28 00:47:48;;;;;;;;;;;18.80;99.90;;;;;;5098606;28;19908;-81
2021/06/28 00:50:14;;;;;;;;;;;18.80;99.90;;;;;;5094988;28;19923;-81
2021/06/28 00:52:39;;;;;;;;;;;18.80;99.90;;;;;;5097360;28;19957;-82
2021/06/28 00:55:07;;;;;;;;;;;18.70;99.90;;;;;;5092614;28;19977;-81
2021/06/28 00:57:33;;;;;;;;;;;18.70;99.90;;;;;;5079687;28;20043;-82
2021/06/28 00:59:59;;;;;;;;;;;18.70;99.90;;;;;;5095897;28;20021;-81
2021/06/28 01:02:24;;;;;;;;;;;18.70;99.90;;;;;;5094418;28;19985;-82
2021/06/28 01:04:50;;;;;;;;;;;18.70;99.90;;;;;;5097428;28;19912;-81
2021/06/28 01:07:15;;;;;;;;;;;18.70;99.90;;;;;;5095802;28;20395;-81
2021/06/28 01:09:41;;;;;;;;;;;18.70;99.90;;;;;;5095497;28;19923;-81
2021/06/28 01:12:06;;;;;;;;;;;18.60;99.90;;;;;;5095277;28;19916;-81
2021/06/28 01:14:32;;;;;;;;;;;18.60;99.90;;;;;;5095309;28;19943;-81
2021/06/28 01:16:58;;;;;;;;;;;18.60;99.90;;;;;;5097281;28;19912;-82
2021/06/28 01:19:27;;;;;;;;;;;18.50;99.90;;;;;;5096143;28;19916;-82
2021/06/28 01:21:52;;;;;;;;;;;18.50;99.90;;;;;;5095556;28;19912;-82
2021/06/28 01:24:18;;;;;;;;;;;18.50;99.90;;;;;;5094148;28;20003;-81
2021/06/28 01:26:44;;;;;;;;;;;18.50;99.90;;;;;;5095268;28;19919;-82
2021/06/28 01:29:09;;;;;;;;;;;18.50;99.90;;;;;;5095014;28;19912;-81
2021/06/28 01:31:35;;;;;;;;;;;18.50;99.90;;;;;;5096602;28;19912;-81
2021/06/28 01:34:00;;;;;;;;;;;18.40;99.90;;;;;;5095505;28;19922;-82
2021/06/28 01:36:26;;;;;;;;;;;18.40;99.90;;;;;;5096595;28;20011;-81
2021/06/28 01:38:53;;;;;;;;;;;18.40;99.90;;;;;;5094883;28;19916;-81
2021/06/28 01:41:18;;;;;;;;;;;18.40;99.90;;;;;;5094710;28;19912;-81
2021/06/28 01:43:44;;;;;;;;;;;18.40;99.90;;;;;;5095335;28;19926;-82
2021/06/28 01:46:09;;;;;;;;;;;18.50;99.90;;;;;;5111423;28;19951;-80
2021/06/28 01:48:37;;;;;;;;;;;18.50;99.90;;;;;;5096849;28;19909;-81
2021/06/28 01:51:04;;;;;;;;;;;18.50;99.90;;;;;;5093115;28;19912;-81
2021/06/28 01:53:29;;;;;;;;;;;18.60;99.90;;;;;;5094691;28;19995;-82
2021/06/28 01:55:55;;;;;;;;;;;18.60;99.90;;;;;;5094220;28;20000;-81
2021/06/28 01:58:20;;;;;;;;;;;18.70;99.90;;;;;;5097021;28;19916;-81
2021/06/28 02:00:47;;;;;;;;;;;18.70;99.90;;;;;;5095162;28;20010;-82
2021/06/28 02:03:14;;;;;;;;;;;18.80;99.90;;;;;;5093816;28;19951;-81
2021/06/28 02:05:41;;;;;;;;;;;18.80;99.90;;;;;;5097214;28;19912;-81
2021/06/28 02:08:07;;;;;;;;;;;18.80;99.90;;;;;;5095758;28;19979;-81
2021/06/28 02:10:37;;;;;;;;;;;18.80;99.90;;;;;;5094740;28;20379;-81
2021/06/28 02:13:03;;;;;;;;;;;18.80;99.90;;;;;;5095359;28;19919;-81
2021/06/28 02:15:29;;;;;;;;;;;18.80;99.90;;;;;;5095512;28;19913;-81
2021/06/28 02:17:55;;;;;;;;;;;18.80;99.90;;;;;;5095103;28;20287;-81
2021/06/28 02:20:21;;;;;;;;;;;18.80;99.90;;;;;;5093130;28;19919;-81
2021/06/28 02:22:47;;;;;;;;;;;18.80;99.90;;;;;;5095062;28;19912;-82
2021/06/28 02:25:13;;;;;;;;;;;18.70;99.90;;;;;;5097550;28;19912;-81
2021/06/28 02:27:39;;;;;;;;;;;18.70;99.90;;;;;;5097895;28;19912;-81
2021/06/28 02:30:05;;;;;;;;;;;18.70;99.90;;;;;;5094535;28;19912;-82
2021/06/28 02:32:31;;;;;;;;;;;18.70;99.90;;;;;;5095128;28;19957;-81
2021/06/28 02:34:56;;;;;;;;;;;18.60;99.90;;;;;;5093814;28;19912;-82
2021/06/28 02:37:22;;;;;;;;;;;18.60;99.90;;;;;;5090253;28;19912;-82
2021/06/28 02:39:47;;;;;;;;;;;18.50;99.90;;;;;;5093153;28;19977;-81
2021/06/28 02:42:13;;;;;;;;;;;18.50;99.90;;;;;;5095523;28;19916;-81
2021/06/28 02:44:38;;;;;;;;;;;18.50;99.90;;;;;;5094119;28;20372;-82
2021/06/28 02:47:04;;;;;;;;;;;18.50;99.90;;;;;;5095184;28;19954;-81
2021/06/28 02:49:29;;;;;;;;;;;18.50;99.90;;;;;;5095492;28;19919;-82
2021/06/28 02:51:55;;;;;;;;;;;18.40;99.90;;;;;;5094937;28;20337;-81
2021/06/28 02:54:20;;;;;;;;;;;18.40;99.90;;;;;;5093774;28;19916;-81
2021/06/28 02:56:46;;;;;;;;;;;18.40;99.90;;;;;;5093884;28;20294;-81
2021/06/28 02:59:12;;;;;;;;;;;18.40;99.90;;;;;;5094761;28;20275;-81
2021/06/28 03:01:38;;;;;;;;;;;18.30;99.90;;;;;;5093751;28;19912;-81
2021/06/28 03:04:04;;;;;;;;;;;18.30;99.90;;;;;;5093861;28;20375;-82
2021/06/28 03:06:29;;;;;;;;;;;18.30;99.90;;;;;;5097669;28;20025;-81
2021/06/28 03:08:55;;;;;;;;;;;18.30;99.90;;;;;;5096606;28;19972;-81
2021/06/28 03:11:21;;;;;;;;;;;18.30;99.90;;;;;;5131262;27;19912;-81
2021/06/28 03:13:47;;;;;;;;;;;18.30;99.90;;;;;;5132094;27;19919;-81
2021/06/28 03:16:12;;;;;;;;;;;18.40;99.90;;;;;;5097148;28;19916;-81
2021/06/28 03:18:38;;;;;;;;;;;18.40;99.90;;;;;;5098348;28;19922;-81
2021/06/28 03:21:07;;;;;;;;;;;18.30;99.90;;;;;;5097668;28;19923;-81
2021/06/28 03:23:32;;;;;;;;;;;18.40;99.90;;;;;;5096766;28;19948;-82
2021/06/28 03:25:58;;;;;;;;;;;18.40;99.90;;;;;;5092726;28;19919;-81
2021/06/28 03:28:23;;;;;;;;;;;18.30;99.90;;;;;;5086955;28;19951;-82
2021/06/28 03:30:49;;;;;;;;;;;18.30;99.90;;;;;;5097028;28;19919;-81
2021/06/28 03:33:15;;;;;;;;;;;18.30;99.90;;;;;;5098193;28;19912;-81
2021/06/28 03:35:40;;;;;;;;;;;18.30;99.90;;;;;;5097726;28;20375;-81
2021/06/28 03:38:06;;;;;;;;;;;18.40;99.90;;;;;;5096501;28;19920;-81
2021/06/28 03:40:32;;;;;;;;;;;18.40;99.90;;;;;;5096112;28;19912;-81
2021/06/28 03:43:02;;;;;;;;;;;18.40;99.90;;;;;;5096963;28;19991;-82
2021/06/28 03:45:27;;;;;;;;;;;18.40;99.90;;;;;;5098357;28;19938;-81
2021/06/28 03:47:53;;;;;;;;;;;18.40;99.90;;;;;;5097028;28;19913;-81
2021/06/28 03:50:18;;;;;;;;;;;18.40;99.90;;;;;;5097630;28;19912;-81
2021/06/28 03:52:44;;;;;;;;;;;18.40;99.90;;;;;;5095304;28;19962;-81
2021/06/28 03:55:10;;;;;;;;;;;18.40;99.90;;;;;;5098527;28;19908;-82
2021/06/28 03:57:36;;;;;;;;;;;18.50;99.90;;;;;;5096570;28;19916;-81
2021/06/28 04:00:07;;;;;;;;;;;18.60;99.90;;;;;;5097868;28;19912;-81
2021/06/28 04:02:36;;;;;;;;;;;18.60;99.90;;;;;;5097581;28;19971;-81
2021/06/28 04:05:03;;;;;;;;;;;18.60;99.90;;;;;;5096593;28;19930;-81
2021/06/28 04:07:29;;;;;;;;;;;18.70;99.90;;;;;;5127781;27;20457;-80
2021/06/28 04:09:54;;;;;;;;;;;18.70;99.90;;;;;;5097069;28;19912;-82
2021/06/28 04:12:20;;;;;;;;;;;18.80;99.90;;;;;;5098161;28;20006;-81
2021/06/28 04:14:45;;;;;;;;;;;18.80;99.90;;;;;;5097036;28;19920;-83
2021/06/28 04:17:11;;;;;;;;;;;18.90;99.90;;;;;;5096331;28;19989;-82
2021/06/28 04:19:36;;;;;;;;;;;19.00;99.90;;;;;;5097688;28;19947;-81
2021/06/28 04:22:02;;;;;;;;;;;19.10;99.90;;;;;;5095613;28;19912;-81
2021/06/28 04:24:50;;;;;;;;;;;19.20;99.90;;;;;;5103857;22;19929;-82
2021/06/28 04:30:44;;;;;;;;;;;19.30;99.90;;;;;;5063832;28;19917;-83
2021/06/28 04:36:16;;;;;;;;;;;19.50;99.90;;;;;;5038435;28;19920;-83
2021/06/28 04:38:41;;;;;;;;;;;19.60;99.90;;;;;;5040373;28;19924;-82
2021/06/28 04:41:07;;;;;;;;;;;19.70;99.90;;;;;;5044103;28;19913;-83
2021/06/28 04:43:32;;;;;;;;;;;19.70;99.90;;;;;;5058102;28;19912;-83
2021/06/28 04:45:57;;;;;;;;;;;19.70;99.90;;;;;;5057396;28;20015;-82
2021/06/28 04:48:23;;;;;;;;;;;19.80;99.90;;;;;;5058451;28;19909;-82
2021/06/28 04:50:49;;;;;;;;;;;19.80;99.90;;;;;;5057521;28;19956;-81
2021/06/28 04:53:14;;;;;;;;;;;19.80;99.90;;;;;;5040724;28;19913;-83
2021/06/28 04:55:40;;;;;;;;;;;19.80;99.90;;;;;;5057371;28;19917;-83
2021/06/28 04:58:05;;;;;;;;;;;19.90;99.90;;;;;;5040958;28;19966;-82
2021/06/28 05:00:31;;;;;;;;;;;19.90;99.90;;;;;;5056485;28;19917;-84
2021/06/28 05:02:56;;;;;;;;;;;20.00;99.90;;;;;;5057219;28;19932;-82
2021/06/28 05:05:22;;;;;;;;;;;20.10;99.90;;;;;;5055677;28;19917;-84
2021/06/28 05:07:47;;;;;;;;;;;20.20;99.90;;;;;;5057763;28;19984;-82
2021/06/28 05:10:14;;;;;;;;;;;20.30;99.90;;;;;;5057103;28;19913;-83
2021/06/28 05:12:39;;;;;;;;;;;20.50;99.90;;;;;;5038855;28;19913;-85
2021/06/28 05:15:05;;;;;;;;;;;20.70;99.90;;;;;;5057396;28;19952;-82
2021/06/28 05:17:31;;;;;;;;;;;20.90;99.90;;;;;;5056911;28;20004;-83
2021/06/28 05:19:57;;;;;;;;;;;21.00;99.90;;;;;;5056516;28;20024;-84
2021/06/28 05:22:22;;;;;;;;;;;21.20;99.90;;;;;;5040050;28;19909;-83
2021/06/28 05:24:48;;;;;;;;;;;21.30;99.90;;;;;;5056558;28;19917;-82
2021/06/28 05:27:13;;;;;;;;;;;21.40;99.90;;;;;;5057149;28;19909;-84
2021/06/28 05:29:39;;;;;;;;;;;21.50;99.90;;;;;;5057646;28;19912;-82
2021/06/28 05:32:05;;;;;;;;;;;21.70;99.90;;;;;;5057298;28;19908;-83
2021/06/28 05:34:31;;;;;;;;;;;21.80;99.90;;;;;;5057075;28;19917;-83
2021/06/28 05:36:56;;;;;;;;;;;21.90;99.90;;;;;;5057967;28;19915;-82
2021/06/28 05:39:22;;;;;;;;;;;22.10;99.90;;;;;;5040198;28;20324;-82
2021/06/28 05:41:47;;;;;;;;;;;22.30;99.90;;;;;;5055696;28;20005;-81
2021/06/28 05:44:12;;;;;;;;;;;22.60;99.90;;;;;;5054055;28;19913;-83
2021/06/28 05:46:38;;;;;;;;;;;22.80;99.90;;;;;;5055182;28;20058;-82
2021/06/28 05:49:03;;;;;;;;;;;23.10;99.90;;;;;;5037424;28;19913;-81
2021/06/28 05:51:29;;;;;;;;;;;23.50;99.90;;;;;;5055533;28;19919;-81
2021/06/28 05:53:54;;;;;;;;;;;23.80;99.90;;;;;;5037648;28;19913;-81
2021/06/28 05:56:20;;;;;;;;;;;24.00;99.90;;;;;;5037988;28;19909;-81
2021/06/28 05:58:45;;;;;;;;;;;24.30;99.90;;;;;;5055147;28;19923;-83
2021/06/28 06:01:11;;;;;;;;;;;24.70;99.90;;;;;;5055639;28;19966;-81
2021/06/28 06:06:12;;;;;;;;;;;25.00;99.90;;;;;;3993823;26;19974;-81
2021/06/28 06:08:45;;;;;;;;;;;25.20;99.90;;;;;;5115074;28;19912;-80
2021/06/28 06:11:31;;;;;;;;;;;25.20;99.90;;;;;;5098724;28;20509;-81
2021/06/28 06:14:24;;;;;;;;;;;25.10;99.90;;;;;;5108407;28;19918;-80
2021/06/28 06:17:25;;;;;;;;;;;;;;;;;;;;;
2021/06/28 06:20:14;;;;;;;;;;;25.20;99.90;;;;;;5084723;28;19987;-79
2021/06/28 06:22:42;;;;;;;;;;;26.00;99.90;;;;;;5094598;28;19921;-81
2021/06/28 06:25:10;;;;;;;;;;;25.70;99.90;;;;;;5086488;28;19994;-81
2021/06/28 06:27:54;;;;;;;;;;;25.30;99.90;;;;;;5095217;28;19917;-81
2021/06/28 06:30:50;;;;;;;;;;;;;;;;;;;;;
2021/06/28 06:33:23;;;;;;;;;;;24.90;99.90;;;;;;5096182;28;20042;-82
2021/06/28 06:35:59;;;;;;;;;;;24.90;99.90;;;;;;5096414;28;20011;-81
2021/06/28 06:38:27;;;;;;;;;;;25.00;99.90;;;;;;5095285;28;19938;-82
2021/06/28 06:40:52;;;;;;;;;;;25.10;99.90;;;;;;5099780;28;19915;-82
2021/06/28 06:43:18;;;;;;;;;;;25.30;99.90;;;;;;5098852;28;19947;-81
2021/06/28 06:45:55;;;;;;;;;;;26.90;99.90;;;;;;5100162;28;19935;-81
2021/06/28 06:48:28;;;;;;;;;;;29.40;99.90;;;;;;5098641;28;19920;-83
2021/06/28 06:51:21;;;;;;;;;;;33.90;99.90;;;;;;5099796;28;20329;-82
2021/06/28 06:57:01;;;;;;;;;;;39.90;75.20;;;;;;5093147;28;19919;-82
2021/06/28 07:02:54;;;;;;;;;;;44.00;56.90;;;;;;5091494;28;19908;-83
2021/06/28 07:06:06;;;;;;;;;;;46.40;52.60;;;;;;5098589;28;19920;-84
2021/06/28 07:11:59;;;;;;;;;;;50.80;44.30;;;;;;5091361;28;19912;-83
2021/06/28 07:14:47;;;;;;;;;;;52.10;40.30;;;;;;5090386;28;19912;-84
2021/06/28 07:17:29;;;;;;;;;;;;;;;;;;;;;
2021/06/28 07:20:24;;;;;;;;;;;49.00;41.30;;;;;;5101182;28;20003;-83
2021/06/28 07:23:12;;;;;;;;;;;45.20;45.10;;;;;;5093055;28;19955;-83
2021/06/28 07:29:08;;;;;;;;;;;50.60;40.00;;;;;;5095137;28;19919;-83
2021/06/28 07:40:31;;;;;;;;;;;54.20;35.10;;;;;;5102650;28;19912;-83
2021/06/28 07:43:16;;;;;;;;;;;55.30;34.40;;;;;;5100245;28;19971;-81
2021/06/28 07:45:54;;;;;;;;;;;;;;;;;;;;;
2021/06/28 07:48:49;;;;;;;;;;;54.50;32.30;;;;;;5098698;28;19995;-81
2021/06/28 07:51:27;;;;;;;;;;;;;;;;;;;;;
2021/06/28 07:56:58;;;;;;;;;;;54.10;33.30;;;;;;5072911;28;20467;-79
2021/06/28 07:59:24;;;;;;;;;;;52.20;33.80;;;;;;5097841;28;19981;-83
2021/06/28 08:01:51;;;;;;;;;;;48.30;36.20;;;;;;5097161;28;19912;-80
2021/06/28 08:04:17;;;;;;;;;;;44.80;38.40;;;;;;5099605;28;20297;-80
2021/06/28 08:06:43;;;;;;;;;;;41.70;41.20;;;;;;5099776;28;19920;-81
2021/06/28 08:09:09;;;;;;;;;;;39.50;43.60;;;;;;5101087;28;20104;-80
2021/06/28 08:11:34;;;;;;;;;;;37.80;45.10;;;;;;5098412;28;19922;-80
2021/06/28 08:14:01;;;;;;;;;;;36.40;46.40;;;;;;5099278;28;19916;-80
2021/06/28 08:16:27;;;;;;;;;;;35.30;47.20;;;;;;5099465;28;19908;-80
2021/06/28 08:18:53;;;;;;;;;;;34.40;48.00;;;;;;5099523;28;19965;-80
2021/06/28 08:21:19;;;;;;;;;;;34.10;48.50;;;;;;5098212;28;19916;-80
2021/06/28 08:23:45;;;;;;;;;;;34.10;48.50;;;;;;5082191;28;19908;-80
2021/06/28 08:26:11;;;;;;;;;;;34.00;48.40;;;;;;5079247;28;20172;-80
2021/06/28 08:28:36;;;;;;;;;;;33.90;48.40;;;;;;5088140;28;19912;-80
2021/06/28 08:31:02;;;;;;;;;;;34.40;47.90;;;;;;5097622;28;20382;-81
2021/06/28 08:33:28;;;;;;;;;;;35.00;46.90;;;;;;5098040;28;19912;-80
2021/06/28 08:35:57;;;;;;;;;;;34.60;47.00;;;;;;5098934;28;19911;-80
2021/06/28 08:38:22;;;;;;;;;;;34.00;47.60;;;;;;5094319;28;19931;-81
2021/06/28 08:40:48;;;;;;;;;;;33.80;48.10;;;;;;5098078;28;19994;-82
2021/06/28 08:43:14;;;;;;;;;;;33.40;48.30;;;;;;5097005;28;19915;-83
2021/06/28 08:45:40;;;;;;;;;;;32.50;48.70;;;;;;5083507;28;19999;-81
2021/06/28 08:48:07;;;;;;;;;;;31.70;49.60;;;;;;5097827;28;20317;-81
2021/06/28 08:50:34;;;;;;;;;;;31.10;50.30;;;;;;5097405;28;20359;-81
2021/06/28 08:52:59;;;;;;;;;;;30.90;50.80;;;;;;5098847;28;20420;-81
2021/06/28 08:55:25;;;;;;;;;;;30.60;51.10;;;;;;5098223;28;19939;-81
2021/06/28 08:57:50;;;;;;;;;;;30.50;51.60;;;;;;5098056;28;19912;-81
2021/06/28 09:00:16;;;;;;;;;;;30.50;51.60;;;;;;5098058;28;19908;-83
2021/06/28 09:02:43;;;;;;;;;;;30.60;51.50;;;;;;5096178;28;20501;-81
2021/06/28 09:05:10;;;;;;;;;;;30.60;51.60;;;;;;5096465;28;19922;-81
2021/06/28 09:07:36;;;;;;;;;;;30.70;51.80;;;;;;5098049;28;19957;-81
2021/06/28 09:10:01;;;;;;;;;;;30.50;52.00;;;;;;5097538;28;20314;-82
2021/06/28 09:12:27;;;;;;;;;;;30.40;52.20;;;;;;5096844;28;19912;-82
2021/06/28 09:14:57;;;;;;;;;;;30.40;52.20;;;;;;5097883;28;19908;-81
2021/06/28 09:17:27;;;;;;;;;;;30.70;52.10;;;;;;5097031;28;19913;-82
2021/06/28 09:20:11;;;;;;;;;;;31.00;51.80;;;;;;5095976;28;19908;-82
2021/06/28 09:22:37;;;;;;;;;;;31.10;51.60;;;;;;5096826;28;19958;-82
2021/06/28 09:25:06;;;;;;;;;;;31.10;51.70;;;;;;5097227;28;19915;-81
2021/06/28 09:27:32;;;;;;;;;;;31.00;51.60;;;;;;5097598;28;20291;-81
2021/06/28 09:30:00;;;;;;;;;;;30.70;51.80;;;;;;5095613;28;19918;-81
2021/06/28 09:32:26;;;;;;;;;;;30.50;52.30;;;;;;5096998;28;20007;-82
2021/06/28 09:34:53;;;;;;;;;;;30.10;52.80;;;;;;5097072;28;19947;-82
2021/06/28 09:37:20;;;;;;;;;;;29.80;53.10;;;;;;5097010;28;19916;-82
2021/06/28 09:39:46;;;;;;;;;;;29.60;53.40;;;;;;5097107;28;20007;-81
2021/06/28 09:42:14;;;;;;;;;;;29.30;53.70;;;;;;5096373;28;19912;-82
2021/06/28 09:44:54;;;;;;;;;;;29.00;54.10;;;;;;5096210;28;19916;-80
2021/06/28 09:47:20;;;;;;;;;;;28.90;54.30;;;;;;5098579;28;20015;-83
2021/06/28 09:49:59;;;;;;;;;;;28.60;54.80;;;;;;5098080;28;19915;-81
2021/06/28 09:52:34;;;;;;;;;;;28.30;55.20;;;;;;5097075;28;19912;-81
2021/06/28 09:55:18;;;;;;;;;;;28.10;55.40;;;;;;5096701;28;19916;-82
2021/06/28 09:58:06;;;;;;;;;;;27.90;55.70;;;;;;5095160;28;19923;-81
2021/06/28 10:00:36;;;;;;;;;;;27.50;57.10;;;;;;5095610;28;19908;-79
2021/06/28 10:03:03;;;;;;;;;;;27.30;57.70;;;;;;5086786;28;19913;-80
2021/06/28 10:05:34;;;;;;;;;;;27.20;57.80;;;;;;5083325;28;19975;-80
2021/06/28 10:07:59;;;;;;;;;;;27.10;58.00;;;;;;5082058;28;19943;-82
2021/06/28 10:10:28;;;;;;;;;;;27.20;58.00;;;;;;5089470;28;19978;-84
2021/06/28 10:12:53;;;;;;;;;;;27.20;58.00;;;;;;5090167;28;19920;-83
2021/06/28 10:15:30;;;;;;;;;;;27.20;58.00;;;;;;5092764;28;19956;-84
2021/06/28 10:17:56;;;;;;;;;;;27.30;58.10;;;;;;5095668;28;20010;-82
2021/06/28 10:20:23;;;;;;;;;;;27.60;57.90;;;;;;5094188;28;19954;-82
2021/06/28 10:22:52;;;;;;;;;;;27.90;57.60;;;;;;5088820;28;19958;-82
2021/06/28 10:25:19;;;;;;;;;;;28.20;57.40;;;;;;5092299;28;19959;-82
2021/06/28 10:27:44;;;;;;;;;;;28.70;57.70;;;;;;5110700;28;19912;-83
2021/06/28 10:30:12;;;;;;;;;;;29.50;57.10;;;;;;5091430;28;20606;-84
2021/06/28 10:32:39;;;;;;;;;;;29.80;56.50;;;;;;5088749;28;19968;-81
2021/06/28 10:35:05;;;;;;;;;;;29.80;56.40;;;;;;5091875;28;19987;-82
2021/06/28 10:37:31;;;;;;;;;;;29.90;56.60;;;;;;5094878;28;20370;-84
2021/06/28 10:39:57;;;;;;;;;;;30.60;56.40;;;;;;5095415;28;19912;-84
2021/06/28 10:42:33;;;;;;;;;;;31.40;55.60;;;;;;5090686;28;19912;-84
2021/06/28 10:44:59;;;;;;;;;;;32.50;54.60;;;;;;5082281;28;20149;-85
2021/06/28 10:47:26;;;;;;;;;;;33.30;53.90;;;;;;5093047;28;19916;-84
2021/06/28 10:49:52;;;;;;;;;;;34.10;53.30;;;;;;5096813;28;19912;-84
2021/06/28 10:52:33;;;;;;;;;;;35.40;52.00;;;;;;5097330;28;19958;-84
2021/06/28 10:55:21;;;;;;;;;;;36.10;51.40;;;;;;5096283;28;19929;-84
2021/06/28 10:57:52;;;;;;;;;;;36.70;50.50;;;;;;5095755;28;19916;-85
2021/06/28 11:00:41;;;;;;;;;;;37.70;50.00;;;;;;5098495;28;20379;-85
2021/06/28 11:03:27;;;;;;;;;;;38.90;48.90;;;;;;5089698;28;19912;-85
2021/06/28 11:06:11;;;;;;;;;;;40.10;48.00;;;;;;5095791;28;20414;-84
2021/06/28 11:08:57;;;;;;;;;;;41.00;47.40;;;;;;5094394;28;19927;-85
2021/06/28 11:11:58;;;;;;;;;;;41.70;46.90;;;;;;5098377;28;19913;-82
2021/06/28 11:14:48;;;;;;;;;;;42.30;46.40;;;;;;5086897;28;19919;-84
2021/06/28 11:17:32;;;;;;;;;;;;;;;;;;;;;
2021/06/28 11:20:03;;;;;;;;;;;42.00;46.10;;;;;;5094543;28;20023;-85
2021/06/28 11:22:34;;;;;;;;;;;42.30;46.20;;;;;;5097310;28;19916;-84
2021/06/28 11:25:01;;;;;;;;;;;42.50;45.60;;;;;;5101819;28;19954;-86
2021/06/28 11:27:27;;;;;;;;;;;42.30;45.60;;;;;;5100393;28;20035;-85
2021/06/28 11:29:54;;;;;;;;;;;42.10;45.90;;;;;;5100850;28;20025;-85
2021/06/28 11:32:26;;;;;;;;;;;42.20;45.70;;;;;;5100424;28;19916;-85
2021/06/28 11:34:53;;;;;;;;;;;42.20;45.40;;;;;;5098469;28;19982;-84
2021/06/28 11:37:18;;;;;;;;;;;42.20;45.20;;;;;;5096277;28;19916;-85
2021/06/28 11:40:13;;;;;;;;;;;42.10;45.10;;;;;;5100465;28;19923;-84
2021/06/28 11:42:39;;;;;;;;;;;41.90;44.80;;;;;;5086958;28;20512;-83
2021/06/28 11:45:04;;;;;;;;;;;41.10;45.50;;;;;;5100175;28;19908;-82
2021/06/28 11:47:45;;;;;;;;;;;41.10;45.40;;;;;;5100005;28;19999;-84
2021/06/28 11:50:23;;;;;;;;;;;41.30;45.30;;;;;;5096977;28;20007;-81
2021/06/28 11:52:48;;;;;;;;;;;41.60;44.90;;;;;;5095704;28;19920;-82
2021/06/28 11:55:14;;;;;;;;;;;41.70;44.80;;;;;;5097866;28;19962;-81
2021/06/28 11:57:39;;;;;;;;;;;41.80;44.80;;;;;;5098227;28;19912;-81
2021/06/28 12:00:08;;;;;;;;;;;41.90;44.30;;;;;;5094275;28;19923;-81
2021/06/28 12:02:34;;;;;;;;;;;42.10;44.30;;;;;;5091891;28;19916;-81
2021/06/28 12:05:04;;;;;;;;;;;41.30;41.80;;;;;;5093309;28;19923;-82
2021/06/28 12:07:29;;;;;;;;;;;40.70;41.80;;;;;;5095963;28;19923;-81
2021/06/28 12:09:58;;;;;;;;;;;39.80;43.00;;;;;;5094040;28;20371;-81
2021/06/28 12:12:23;;;;;;;;;;;38.70;43.60;;;;;;5087923;28;19916;-83
2021/06/28 12:14:51;;;;;;;;;;;37.60;44.40;;;;;;5086530;28;19923;-81
2021/06/28 12:17:21;;;;;;;;;;;36.80;45.10;;;;;;5097127;28;20002;-82
2021/06/28 12:19:47;;;;;;;;;;;36.10;45.60;;;;;;5089885;28;19916;-82
2021/06/28 12:22:16;;;;;;;;;;;35.60;46.10;;;;;;5093909;28;19920;-82
2021/06/28 12:24:43;;;;;;;;;;;35.20;46.20;;;;;;5091736;28;19967;-82
2021/06/28 12:27:08;;;;;;;;;;;34.70;46.60;;;;;;5097456;28;19924;-82
2021/06/28 12:29:47;;;;;;;;;;;34.20;47.10;;;;;;5092885;28;19912;-81
2021/06/28 12:32:14;;;;;;;;;;;33.70;47.50;;;;;;5094310;28;19916;-81
2021/06/28 12:34:44;;;;;;;;;;;33.10;47.80;;;;;;5085977;28;19920;-80
2021/06/28 12:37:09;;;;;;;;;;;32.60;48.20;;;;;;5086174;28;19919;-82
2021/06/28 12:39:35;;;;;;;;;;;32.10;48.80;;;;;;5093473;28;20370;-81
2021/06/28 12:42:11;;;;;;;;;;;31.60;49.20;;;;;;5092415;28;20031;-81
2021/06/28 12:44:36;;;;;;;;;;;31.30;49.70;;;;;;5095526;28;20704;-81
2021/06/28 12:47:03;;;;;;;;;;;31.40;49.90;;;;;;5096583;28;19916;-82
2021/06/28 12:49:28;;;;;;;;;;;31.70;49.70;;;;;;5095682;28;19999;-81
2021/06/28 12:52:12;;;;;;;;;;;32.00;49.30;;;;;;5095916;28;19957;-82
2021/06/28 12:54:38;;;;;;;;;;;32.20;49.10;;;;;;5084495;28;19920;-83
2021/06/28 12:57:03;;;;;;;;;;;32.20;49.10;;;;;;5095198;28;19982;-83
2021/06/28 12:59:38;;;;;;;;;;;32.30;49.20;;;;;;5094334;28;19920;-82
2021/06/28 13:02:04;;;;;;;;;;;32.60;48.90;;;;;;5092068;28;19955;-82
2021/06/28 13:04:29;;;;;;;;;;;32.70;48.70;;;;;;5091168;28;20375;-83
2021/06/28 13:06:58;;;;;;;;;;;32.60;48.70;;;;;;5094227;28;19923;-82
2021/06/28 13:09:25;;;;;;;;;;;32.40;49.00;;;;;;5077907;28;20376;-83
2021/06/28 13:11:51;;;;;;;;;;;32.00;49.50;;;;;;5095435;28;20002;-82
2021/06/28 13:14:26;;;;;;;;;;;31.80;49.80;;;;;;5095694;28;20035;-83
2021/06/28 13:19:27;;;;;;;;;;;31.60;50.60;;;;;;5078729;28;20300;-82
2021/06/28 13:21:53;;;;;;;;;;;31.60;50.70;;;;;;5090219;28;19920;-82
2021/06/28 13:24:22;;;;;;;;;;;31.50;50.70;;;;;;5083097;28;20389;-81
2021/06/28 13:26:49;;;;;;;;;;;31.50;51.00;;;;;;5095549;28;19916;-82
2021/06/28 13:29:16;;;;;;;;;;;31.40;51.20;;;;;;5095389;28;19912;-83
2021/06/28 13:31:49;;;;;;;;;;;31.30;51.50;;;;;;5095219;28;19979;-82
2021/06/28 13:34:15;;;;;;;;;;;31.10;51.60;;;;;;5094631;28;19912;-83
2021/06/28 13:37:00;;;;;;;;;;;31.00;51.80;;;;;;5095558;28;19918;-83
2021/06/28 13:39:51;;;;;;;;;;;30.70;52.10;;;;;;5095169;28;19999;-82
2021/06/28 13:42:20;;;;;;;;;;;30.30;53.10;;;;;;5098898;28;19984;-80
2021/06/28 13:45:07;;;;;;;;;;;30.10;53.00;;;;;;5095526;28;19920;-82
2021/06/28 13:47:52;;;;;;;;;;;30.00;53.40;;;;;;5098126;28;19930;-82
2021/06/28 13:50:18;;;;;;;;;;;29.90;53.70;;;;;;5096333;28;19991;-84
2021/06/28 13:52:44;;;;;;;;;;;30.00;53.80;;;;;;5094211;28;20410;-82
2021/06/28 13:55:10;;;;;;;;;;;30.20;53.60;;;;;;5096093;28;19995;-82
2021/06/28 13:57:49;;;;;;;;;;;30.30;53.40;;;;;;5087017;28;19963;-82
2021/06/28 14:00:16;;;;;;;;;;;30.40;53.40;;;;;;5093086;28;19919;-82
2021/06/28 14:02:42;;;;;;;;;;;30.40;53.50;;;;;;5096500;28;19995;-82
2021/06/28 14:05:08;;;;;;;;;;;30.40;53.70;;;;;;5092445;28;19944;-82
2021/06/28 14:07:34;;;;;;;;;;;30.40;53.80;;;;;;5093264;28;19912;-83
2021/06/28 14:09:59;;;;;;;;;;;30.30;53.80;;;;;;5091027;28;19934;-82
2021/06/28 14:12:25;;;;;;;;;;;30.40;53.80;;;;;;5091830;28;20342;-82
2021/06/28 14:14:50;;;;;;;;;;;30.30;53.90;;;;;;5093701;28;19919;-82
2021/06/28 14:17:16;;;;;;;;;;;30.20;54.00;;;;;;5093129;28;20295;-83
2021/06/28 14:19:41;;;;;;;;;;;30.00;54.20;;;;;;5093865;28;20368;-82
2021/06/28 14:22:06;;;;;;;;;;;29.90;54.40;;;;;;5093438;28;20049;-82
2021/06/28 14:24:32;;;;;;;;;;;29.80;54.60;;;;;;5093347;28;19919;-82
2021/06/28 14:26:59;;;;;;;;;;;29.70;54.70;;;;;;5095842;28;20024;-82
2021/06/28 14:29:25;;;;;;;;;;;29.60;54.70;;;;;;5095535;28;19916;-83
2021/06/28 14:31:50;;;;;;;;;;;29.60;54.80;;;;;;5095792;28;19922;-85
2021/06/28 14:34:15;;;;;;;;;;;29.60;54.80;;;;;;5095523;28;19938;-82
2021/06/28 14:36:42;;;;;;;;;;;29.60;54.90;;;;;;5095773;28;19974;-83
2021/06/28 14:39:07;;;;;;;;;;;29.60;55.00;;;;;;5095450;28;19912;-82
2021/06/28 14:41:33;;;;;;;;;;;29.50;55.00;;;;;;5095869;28;19908;-84
2021/06/28 14:44:00;;;;;;;;;;;29.60;55.00;;;;;;5097846;28;19911;-83
2021/06/28 14:46:26;;;;;;;;;;;29.50;55.00;;;;;;5097649;28;19908;-83
2021/06/28 14:48:51;;;;;;;;;;;29.50;55.00;;;;;;5097796;28;19931;-84
2021/06/28 14:51:17;;;;;;;;;;;29.40;55.20;;;;;;5097685;28;19978;-83
2021/06/28 14:53:42;;;;;;;;;;;29.40;55.20;;;;;;5096296;28;19912;-82
2021/06/28 14:56:08;;;;;;;;;;;29.40;55.20;;;;;;5096851;28;19916;-84
2021/06/28 14:58:33;;;;;;;;;;;29.40;55.20;;;;;;5097841;28;19951;-84
2021/06/28 15:00:59;;;;;;;;;;;29.40;55.20;;;;;;5100061;28;19908;-84
2021/06/28 15:03:24;;;;;;;;;;;29.50;55.40;;;;;;5100211;28;20006;-84
2021/06/28 15:05:50;;;;;;;;;;;29.60;55.40;;;;;;5088172;28;20012;-84
2021/06/28 15:08:15;;;;;;;;;;;29.60;55.40;;;;;;5096727;28;19908;-84
2021/06/28 15:10:41;;;;;;;;;;;29.60;55.30;;;;;;5099191;28;19912;-83